Alyeska Resort Wx Sites
Hourly Roundup from Summit Site
ALYSUM 2/13/2016
Click Here to View Graph!

        DATE  TIME   Air  Wind  Wind  Wind   Rel  BATT Solar
                    Temp   Spd   Dir  Gust  Hum%  Volt Watts
                      F   AVG   AVG   MAX   AVG   AVG    M

   2/13/2016 22:00    25     8   212    23   100 13.06  0.00
   2/13/2016 21:00    25     8   223    22   100 13.08  0.00
   2/13/2016 20:00    25     8    17    24   100 13.11  0.00
   2/13/2016 19:00    25     6   226    27   100 13.16  0.06
   2/13/2016 18:00    25    12    79    32   100 13.34  6.36
   2/13/2016 17:00    26     9    73    25   100 13.71 30.56
   2/13/2016 16:00    26    10    88    25   100 14.16 78.34
   2/13/2016 15:00    26    11    78    35   100 14.61119.60
   2/13/2016 14:00    26    15    95    39   100 14.79176.10
   2/13/2016 13:00    26     9    96    29   100 14.96156.60
   2/13/2016 12:00    25    12    83    31   100 14.24104.10
   2/13/2016 11:00    25    11    83    24   100 13.52 74.72
   2/13/2016 10:00    25    11    86    30   100 13.04 27.00
   2/13/2016 09:00    25    12    76    29    99 12.93  1.56
   2/13/2016 08:00    25    14    81    36    99 12.94  0.00
   2/13/2016 07:00    25    23    83    47    98 12.95  0.00
   2/13/2016 06:00    25     7    85    40   100 12.95  0.00
   2/13/2016 05:00    26     0     0     0   100 12.97  0.00
   2/13/2016 04:00    26     0     0     0   100 12.98  0.00
   2/13/2016 03:00    27     0     0     0   100 12.99  0.00
   2/13/2016 02:00    27     0     0     0   100 13.00  0.00
   2/13/2016 01:00    27     0     0     0   100 13.01  0.01
   2/12/2016 24:00    28     0     0     0   100 13.02  0.01
   2/12/2016 23:00    28     0     0     0   100 13.04  0.01


Click Here to View Graph!